sensor_id;sensor_type;location;lat;lon;timestamp;pressure;altitude;pressure_sealevel;temperature;humidity
25560;BME280;13450;49.374;8.584;2023-02-20T00:31:26;101691.09;;;7.81;100.00
25560;BME280;13450;49.374;8.584;2023-02-20T01:04:50;101680.03;;;6.92;100.00
25560;BME280;13450;49.374;8.584;2023-02-20T01:15:04;101667.28;;;6.64;100.00
25560;BME280;13450;49.374;8.584;2023-02-20T01:32:55;101672.50;;;6.22;100.00
25560;BME280;13450;49.374;8.584;2023-02-20T01:37:59;101680.53;;;6.10;100.00
25560;BME280;13450;49.374;8.584;2023-02-20T01:40:26;101679.34;;;6.03;100.00
25560;BME280;13450;49.374;8.584;2023-02-20T01:42:52;101675.94;;;6.01;100.00
25560;BME280;13450;49.374;8.584;2023-02-20T01:45:41;101680.06;;;5.94;100.00
25560;BME280;13450;49.374;8.584;2023-02-20T01:53:54;101676.00;;;5.78;100.00
25560;BME280;13450;49.374;8.584;2023-02-20T01:59:24;101665.25;;;5.68;100.00
25560;BME280;13450;49.374;8.584;2023-02-20T02:04:28;101667.44;;;5.63;100.00
25560;BME280;13450;49.374;8.584;2023-02-20T03:01:13;101643.16;;;4.88;100.00
25560;BME280;13450;49.374;8.584;2023-02-20T03:03:42;101636.28;;;4.85;100.00
25560;BME280;13450;49.374;8.584;2023-02-20T03:06:21;101640.75;;;4.84;100.00
25560;BME280;13450;49.374;8.584;2023-02-20T03:09:07;101640.97;;;4.81;100.00
25560;BME280;13450;49.374;8.584;2023-02-20T03:11:35;101639.28;;;4.80;100.00
25560;BME280;13450;49.374;8.584;2023-02-20T03:14:09;101641.44;;;4.75;100.00
25560;BME280;13450;49.374;8.584;2023-02-20T03:20:08;101645.88;;;4.75;100.00
25560;BME280;13450;49.374;8.584;2023-02-20T03:33:12;101636.38;;;4.72;100.00
25560;BME280;13450;49.374;8.584;2023-02-20T04:05:02;101644.03;;;4.52;100.00
25560;BME280;13450;49.374;8.584;2023-02-20T04:20:28;101653.41;;;4.45;100.00
25560;BME280;13450;49.374;8.584;2023-02-20T04:23:26;101660.63;;;4.43;100.00
25560;BME280;13450;49.374;8.584;2023-02-20T04:39:21;101655.34;;;4.43;100.00
25560;BME280;13450;49.374;8.584;2023-02-20T05:53:12;101646.03;;;4.13;100.00
25560;BME280;13450;49.374;8.584;2023-02-20T05:55:39;101649.66;;;4.12;100.00
25560;BME280;13450;49.374;8.584;2023-02-20T05:58:05;101656.63;;;4.13;100.00
25560;BME280;13450;49.374;8.584;2023-02-20T06:00:30;101656.03;;;4.09;100.00
25560;BME280;13450;49.374;8.584;2023-02-20T06:02:55;101646.25;;;4.10;100.00
25560;BME280;13450;49.374;8.584;2023-02-20T06:05:21;101651.56;;;4.10;100.00
25560;BME280;13450;49.374;8.584;2023-02-20T06:07:46;101651.81;;;4.07;100.00
25560;BME280;13450;49.374;8.584;2023-02-20T06:23:07;101639.75;;;4.02;100.00
25560;BME280;13450;49.374;8.584;2023-02-20T06:25:33;101638.03;;;4.01;100.00
25560;BME280;13450;49.374;8.584;2023-02-20T06:27:58;101645.97;;;4.01;100.00
25560;BME280;13450;49.374;8.584;2023-02-20T06:30:23;101641.53;;;4.02;100.00
25560;BME280;13450;49.374;8.584;2023-02-20T06:32:49;101646.94;;;4.00;100.00
25560;BME280;13450;49.374;8.584;2023-02-20T06:35:14;101647.78;;;4.01;100.00
25560;BME280;13450;49.374;8.584;2023-02-20T06:37:44;101643.56;;;3.98;100.00
25560;BME280;13450;49.374;8.584;2023-02-20T06:40:13;101644.41;;;3.99;100.00
25560;BME280;13450;49.374;8.584;2023-02-20T06:42:38;101640.66;;;4.01;100.00
25560;BME280;13450;49.374;8.584;2023-02-20T06:47:39;101638.56;;;4.07;100.00
25560;BME280;13450;49.374;8.584;2023-02-20T06:50:04;101640.13;;;4.09;100.00
25560;BME280;13450;49.374;8.584;2023-02-20T06:52:30;101644.34;;;4.12;100.00
25560;BME280;13450;49.374;8.584;2023-02-20T06:54:56;101649.09;;;4.19;100.00
25560;BME280;13450;49.374;8.584;2023-02-20T06:57:21;101656.81;;;4.23;100.00
25560;BME280;13450;49.374;8.584;2023-02-20T06:59:50;101659.13;;;4.27;100.00
25560;BME280;13450;49.374;8.584;2023-02-20T07:02:15;101653.47;;;4.32;100.00
25560;BME280;13450;49.374;8.584;2023-02-20T07:04:48;101655.06;;;4.35;100.00
25560;BME280;13450;49.374;8.584;2023-02-20T07:07:14;101656.28;;;4.42;100.00
25560;BME280;13450;49.374;8.584;2023-02-20T07:09:56;101662.72;;;4.51;100.00
25560;BME280;13450;49.374;8.584;2023-02-20T07:12:42;101660.44;;;4.57;100.00
25560;BME280;13450;49.374;8.584;2023-02-20T07:20:21;101662.66;;;4.75;100.00
25560;BME280;13450;49.374;8.584;2023-02-20T07:38:17;101673.13;;;5.24;100.00
25560;BME280;13450;49.374;8.584;2023-02-20T07:48:30;101673.84;;;5.60;100.00
25560;BME280;13450;49.374;8.584;2023-02-20T07:53:38;101666.47;;;5.75;100.00
25560;BME280;13450;49.374;8.584;2023-02-20T07:58:34;101664.13;;;5.94;100.00
25560;BME280;13450;49.374;8.584;2023-02-20T08:01:02;101655.50;;;6.01;100.00
25560;BME280;13450;49.374;8.584;2023-02-20T08:03:33;101656.75;;;6.09;100.00
25560;BME280;13450;49.374;8.584;2023-02-20T08:05:58;101661.19;;;6.20;100.00
25560;BME280;13450;49.374;8.584;2023-02-20T08:08:24;101650.03;;;6.26;100.00
25560;BME280;13450;49.374;8.584;2023-02-20T08:10:53;101646.59;;;6.35;100.00
25560;BME280;13450;49.374;8.584;2023-02-20T08:13:47;101643.78;;;6.48;100.00
25560;BME280;13450;49.374;8.584;2023-02-20T08:16:13;101636.81;;;6.57;100.00
25560;BME280;13450;49.374;8.584;2023-02-20T08:18:39;101641.66;;;6.63;100.00
25560;BME280;13450;49.374;8.584;2023-02-20T08:21:04;101647.13;;;6.72;100.00
25560;BME280;13450;49.374;8.584;2023-02-20T08:23:30;101631.25;;;6.82;100.00
25560;BME280;13450;49.374;8.584;2023-02-20T08:25:55;101641.66;;;6.94;100.00
25560;BME280;13450;49.374;8.584;2023-02-20T08:30:56;101636.66;;;7.23;100.00
25560;BME280;13450;49.374;8.584;2023-02-20T08:33:31;101634.31;;;7.39;100.00
25560;BME280;13450;49.374;8.584;2023-02-20T08:35:57;101633.00;;;7.65;100.00
25560;BME280;13450;49.374;8.584;2023-02-20T08:38:32;101620.13;;;7.90;100.00
25560;BME280;13450;49.374;8.584;2023-02-20T08:41:06;101627.00;;;8.12;100.00
25560;BME280;13450;49.374;8.584;2023-02-20T08:46:11;101616.50;;;8.30;100.00
25560;BME280;13450;49.374;8.584;2023-02-20T08:48:37;101613.13;;;8.38;100.00
25560;BME280;13450;49.374;8.584;2023-02-20T08:51:06;101614.28;;;8.55;100.00
25560;BME280;13450;49.374;8.584;2023-02-20T08:53:33;101613.13;;;8.58;100.00
25560;BME280;13450;49.374;8.584;2023-02-20T08:56:02;101615.38;;;8.62;100.00
25560;BME280;13450;49.374;8.584;2023-02-20T08:58:32;101604.41;;;8.56;100.00
25560;BME280;13450;49.374;8.584;2023-02-20T09:00:57;101608.34;;;8.61;100.00
25560;BME280;13450;49.374;8.584;2023-02-20T09:03:23;101606.41;;;8.54;100.00
25560;BME280;13450;49.374;8.584;2023-02-20T09:05:49;101616.09;;;8.55;100.00
25560;BME280;13450;49.374;8.584;2023-02-20T09:08:14;101608.91;;;8.65;100.00
25560;BME280;13450;49.374;8.584;2023-02-20T09:10:41;101600.72;;;8.76;100.00
25560;BME280;13450;49.374;8.584;2023-02-20T09:13:07;101596.81;;;8.71;100.00
25560;BME280;13450;49.374;8.584;2023-02-20T09:15:32;101588.06;;;8.79;100.00
25560;BME280;13450;49.374;8.584;2023-02-20T09:18:04;101592.84;;;8.85;100.00
25560;BME280;13450;49.374;8.584;2023-02-20T09:20:31;101597.00;;;8.97;100.00
25560;BME280;13450;49.374;8.584;2023-02-20T09:22:58;101593.06;;;9.01;100.00
25560;BME280;13450;49.374;8.584;2023-02-20T09:25:26;101592.53;;;8.88;100.00
25560;BME280;13450;49.374;8.584;2023-02-20T09:27:52;101590.00;;;8.86;100.00
25560;BME280;13450;49.374;8.584;2023-02-20T09:30:18;101584.84;;;8.85;100.00
25560;BME280;13450;49.374;8.584;2023-02-20T09:32:48;101590.56;;;8.90;100.00
25560;BME280;13450;49.374;8.584;2023-02-20T09:35:23;101597.88;;;8.88;100.00
25560;BME280;13450;49.374;8.584;2023-02-20T09:37:49;101596.19;;;8.87;100.00
25560;BME280;13450;49.374;8.584;2023-02-20T09:40:17;101597.34;;;8.84;100.00
25560;BME280;13450;49.374;8.584;2023-02-20T09:43:04;101597.06;;;8.87;100.00
25560;BME280;13450;49.374;8.584;2023-02-20T09:45:50;101583.81;;;8.96;100.00
25560;BME280;13450;49.374;8.584;2023-02-20T09:50:58;101583.97;;;9.22;100.00
25560;BME280;13450;49.374;8.584;2023-02-20T09:56:05;101570.13;;;9.37;100.00
25560;BME280;13450;49.374;8.584;2023-02-20T10:03:56;101563.34;;;9.42;100.00
25560;BME280;13450;49.374;8.584;2023-02-20T10:06:29;101558.84;;;9.43;100.00
25560;BME280;13450;49.374;8.584;2023-02-20T10:08:55;101557.03;;;9.34;100.00
25560;BME280;13450;49.374;8.584;2023-02-20T10:16:35;101547.09;;;9.72;100.00
25560;BME280;13450;49.374;8.584;2023-02-20T10:27:51;101539.88;;;10.27;100.00
25560;BME280;13450;49.374;8.584;2023-02-20T10:30:47;101539.44;;;10.14;100.00
25560;BME280;13450;49.374;8.584;2023-02-20T10:33:41;101544.59;;;10.33;100.00
25560;BME280;13450;49.374;8.584;2023-02-20T10:38:55;101537.97;;;10.99;100.00
25560;BME280;13450;49.374;8.584;2023-02-20T10:44:14;101511.47;;;11.47;100.00
25560;BME280;13450;49.374;8.584;2023-02-20T10:59:29;101513.63;;;19.95;63.83
25560;BME280;13450;49.374;8.584;2023-02-20T11:01:30;101506.94;;;20.98;57.76
25560;BME280;13450;49.374;8.584;2023-02-20T11:04:08;101512.47;;;20.92;54.00
25560;BME280;13450;49.374;8.584;2023-02-20T11:06:46;101499.53;;;20.87;53.66
25560;BME280;13450;49.374;8.584;2023-02-20T11:09:14;101520.81;;;20.34;54.30
25560;BME280;13450;49.374;8.584;2023-02-20T11:11:42;101510.56;;;20.73;52.57
25560;BME280;13450;49.374;8.584;2023-02-20T11:16:42;101495.34;;;21.76;49.27
25560;BME280;13450;49.374;8.584;2023-02-20T11:19:16;101492.91;;;22.76;45.62
25560;BME280;13450;49.374;8.584;2023-02-20T11:21:52;101488.97;;;22.83;45.77
25560;BME280;13450;49.374;8.584;2023-02-20T11:24:41;101487.16;;;23.18;45.25
25560;BME280;13450;49.374;8.584;2023-02-20T11:27:43;101478.38;;;23.62;43.11
25560;BME280;13450;49.374;8.584;2023-02-20T11:33:16;101476.19;;;22.72;42.83
25560;BME280;13450;49.374;8.584;2023-02-20T11:35:57;101480.53;;;22.08;43.34
25560;BME280;13450;49.374;8.584;2023-02-20T11:38:36;101478.50;;;22.27;43.55
25560;BME280;13450;49.374;8.584;2023-02-20T11:41:30;101474.88;;;21.98;44.43
25560;BME280;13450;49.374;8.584;2023-02-20T11:47:28;101458.38;;;24.13;44.26
25560;BME280;13450;49.374;8.584;2023-02-20T11:50:16;101456.50;;;24.59;39.11
25560;BME280;13450;49.374;8.584;2023-02-20T11:52:58;101465.03;;;24.85;38.65
25560;BME280;13450;49.374;8.584;2023-02-20T11:55:31;101461.16;;;25.41;37.01
25560;BME280;13450;49.374;8.584;2023-02-20T11:58:01;101439.44;;;26.05;35.60
25560;BME280;13450;49.374;8.584;2023-02-20T12:00:42;101443.84;;;26.11;35.53
25560;BME280;13450;49.374;8.584;2023-02-20T12:03:29;101443.19;;;25.93;35.42
25560;BME280;13450;49.374;8.584;2023-02-20T12:06:00;101440.16;;;26.43;34.87
25560;BME280;13450;49.374;8.584;2023-02-20T12:11:09;101416.13;;;26.87;33.78
25560;BME280;13450;49.374;8.584;2023-02-20T12:13:57;101407.00;;;25.48;35.39
25560;BME280;13450;49.374;8.584;2023-02-20T12:17:05;101401.28;;;25.55;35.84
25560;BME280;13450;49.374;8.584;2023-02-20T12:20:02;101390.09;;;26.10;34.97
25560;BME280;13450;49.374;8.584;2023-02-20T12:22:36;101395.38;;;25.30;35.99
25560;BME280;13450;49.374;8.584;2023-02-20T12:25:17;101386.03;;;25.64;36.74
25560;BME280;13450;49.374;8.584;2023-02-20T12:31:25;101386.13;;;23.87;36.86
25560;BME280;13450;49.374;8.584;2023-02-20T12:34:24;101375.59;;;23.96;38.81
25560;BME280;13450;49.374;8.584;2023-02-20T12:45:38;101364.84;;;25.16;35.03
25560;BME280;13450;49.374;8.584;2023-02-20T12:50:47;101352.50;;;26.05;32.91
25560;BME280;13450;49.374;8.584;2023-02-20T12:53:23;101337.66;;;26.96;31.33
25560;BME280;13450;49.374;8.584;2023-02-20T12:59:02;101327.38;;;25.60;32.96
25560;BME280;13450;49.374;8.584;2023-02-20T13:01:29;101335.59;;;25.60;33.32
25560;BME280;13450;49.374;8.584;2023-02-20T13:06:42;101314.22;;;28.27;31.25
25560;BME280;13450;49.374;8.584;2023-02-20T13:09:25;101323.91;;;27.27;30.21
25560;BME280;13450;49.374;8.584;2023-02-20T13:11:56;101314.13;;;25.46;31.53
25560;BME280;13450;49.374;8.584;2023-02-20T13:14:38;101310.59;;;26.10;32.90
25560;BME280;13450;49.374;8.584;2023-02-20T13:22:21;101299.59;;;29.31;27.96
25560;BME280;13450;49.374;8.584;2023-02-20T13:24:46;101304.41;;;26.61;30.05
25560;BME280;13450;49.374;8.584;2023-02-20T13:27:30;101300.00;;;27.23;29.25
25560;BME280;13450;49.374;8.584;2023-02-20T13:30:01;101297.31;;;26.97;28.33
25560;BME280;13450;49.374;8.584;2023-02-20T13:32:35;101293.41;;;25.61;29.47
25560;BME280;13450;49.374;8.584;2023-02-20T13:35:43;101282.19;;;27.10;30.24
25560;BME280;13450;49.374;8.584;2023-02-20T13:38:18;101271.72;;;26.34;29.18
25560;BME280;13450;49.374;8.584;2023-02-20T13:54:22;101267.66;;;30.18;25.48
25560;BME280;13450;49.374;8.584;2023-02-20T13:56:52;101256.47;;;29.89;25.48
25560;BME280;13450;49.374;8.584;2023-02-20T13:59:22;101261.72;;;28.18;25.89
25560;BME280;13450;49.374;8.584;2023-02-20T14:02:13;101257.50;;;26.94;27.64
25560;BME280;13450;49.374;8.584;2023-02-20T14:05:18;101252.03;;;28.31;26.32
25560;BME280;13450;49.374;8.584;2023-02-20T14:07:45;101256.41;;;26.95;27.26
25560;BME280;13450;49.374;8.584;2023-02-20T14:10:33;101252.53;;;27.88;26.26
25560;BME280;13450;49.374;8.584;2023-02-20T14:13:10;101228.84;;;28.43;27.80
25560;BME280;13450;49.374;8.584;2023-02-20T14:15:56;101238.88;;;27.73;26.54
25560;BME280;13450;49.374;8.584;2023-02-20T14:18:33;101214.38;;;27.05;27.58
25560;BME280;13450;49.374;8.584;2023-02-20T14:21:20;101234.91;;;24.86;29.05
25560;BME280;13450;49.374;8.584;2023-02-20T14:23:48;101220.41;;;24.58;30.38
25560;BME280;13450;49.374;8.584;2023-02-20T14:26:29;101205.81;;;21.76;34.00
25560;BME280;13450;49.374;8.584;2023-02-20T14:28:56;101198.41;;;21.47;35.54
25560;BME280;13450;49.374;8.584;2023-02-20T14:31:33;101204.75;;;21.65;35.65
25560;BME280;13450;49.374;8.584;2023-02-20T14:34:06;101200.34;;;21.11;36.46
25560;BME280;13450;49.374;8.584;2023-02-20T14:42:01;101190.78;;;19.50;40.49
25560;BME280;13450;49.374;8.584;2023-02-20T14:44:30;101177.91;;;19.26;41.20
25560;BME280;13450;49.374;8.584;2023-02-20T14:47:21;101180.69;;;19.38;42.35
25560;BME280;13450;49.374;8.584;2023-02-20T14:49:52;101173.59;;;19.37;44.13
25560;BME280;13450;49.374;8.584;2023-02-20T14:52:43;101165.78;;;18.59;43.03
25560;BME280;13450;49.374;8.584;2023-02-20T14:55:16;101157.72;;;17.81;44.86
25560;BME280;13450;49.374;8.584;2023-02-20T14:57:48;101168.09;;;17.38;46.14
25560;BME280;13450;49.374;8.584;2023-02-20T15:02:47;101158.44;;;16.56;51.29
25560;BME280;13450;49.374;8.584;2023-02-20T15:05:14;101174.50;;;17.58;48.47
25560;BME280;13450;49.374;8.584;2023-02-20T15:07:44;101164.00;;;17.75;48.05
25560;BME280;13450;49.374;8.584;2023-02-20T15:10:38;101164.03;;;17.68;47.63
25560;BME280;13450;49.374;8.584;2023-02-20T15:13:10;101151.50;;;18.20;48.72
25560;BME280;13450;49.374;8.584;2023-02-20T15:15:38;101146.56;;;18.35;46.51
25560;BME280;13450;49.374;8.584;2023-02-20T15:18:15;101138.91;;;19.02;46.04
25560;BME280;13450;49.374;8.584;2023-02-20T15:20:44;101136.50;;;19.12;44.39
25560;BME280;13450;49.374;8.584;2023-02-20T15:25:38;101133.25;;;20.21;41.88
25560;BME280;13450;49.374;8.584;2023-02-20T15:28:07;101132.25;;;20.58;40.72
25560;BME280;13450;49.374;8.584;2023-02-20T15:30:34;101130.28;;;19.30;43.77
25560;BME280;13450;49.374;8.584;2023-02-20T15:32:59;101122.06;;;19.37;43.82
25560;BME280;13450;49.374;8.584;2023-02-20T15:35:28;101133.94;;;20.16;42.83
25560;BME280;13450;49.374;8.584;2023-02-20T15:37:54;101123.56;;;20.25;41.83
25560;BME280;13450;49.374;8.584;2023-02-20T15:40:26;101128.03;;;20.07;42.11
25560;BME280;13450;49.374;8.584;2023-02-20T15:42:53;101119.91;;;19.58;42.47
25560;BME280;13450;49.374;8.584;2023-02-20T15:45:22;101125.06;;;19.10;45.38
25560;BME280;13450;49.374;8.584;2023-02-20T15:47:53;101122.88;;;18.56;45.33
25560;BME280;13450;49.374;8.584;2023-02-20T15:50:19;101119.31;;;17.98;48.25
25560;BME280;13450;49.374;8.584;2023-02-20T15:52:46;101111.59;;;17.03;49.74
25560;BME280;13450;49.374;8.584;2023-02-20T15:55:15;101104.19;;;16.38;53.49
25560;BME280;13450;49.374;8.584;2023-02-20T15:57:42;101098.94;;;15.89;57.62
25560;BME280;13450;49.374;8.584;2023-02-20T16:00:20;101102.34;;;15.49;60.03
25560;BME280;13450;49.374;8.584;2023-02-20T16:02:47;101089.19;;;15.25;61.20
25560;BME280;13450;49.374;8.584;2023-02-20T16:05:14;101088.22;;;14.98;64.68
25560;BME280;13450;49.374;8.584;2023-02-20T16:07:40;101098.34;;;14.67;69.09
25560;BME280;13450;49.374;8.584;2023-02-20T16:10:06;101107.31;;;14.74;69.57
25560;BME280;13450;49.374;8.584;2023-02-20T16:12:32;101095.13;;;14.78;71.10
25560;BME280;13450;49.374;8.584;2023-02-20T16:15:03;101102.59;;;14.76;71.99
25560;BME280;13450;49.374;8.584;2023-02-20T16:17:32;101107.25;;;14.39;75.95
25560;BME280;13450;49.374;8.584;2023-02-20T16:19:58;101103.91;;;14.37;77.36
25560;BME280;13450;49.374;8.584;2023-02-20T16:22:23;101102.53;;;14.19;79.71
25560;BME280;13450;49.374;8.584;2023-02-20T16:24:48;101092.00;;;14.03;82.11
25560;BME280;13450;49.374;8.584;2023-02-20T16:27:18;101087.72;;;13.86;83.57
25560;BME280;13450;49.374;8.584;2023-02-20T16:29:44;101087.25;;;13.61;86.75
25560;BME280;13450;49.374;8.584;2023-02-20T16:34:48;101091.06;;;13.21;91.51
25560;BME280;13450;49.374;8.584;2023-02-20T16:37:14;101097.47;;;13.05;94.29
25560;BME280;13450;49.374;8.584;2023-02-20T16:39:44;101081.19;;;12.92;94.19
25560;BME280;13450;49.374;8.584;2023-02-20T16:42:20;101092.22;;;12.82;95.99
25560;BME280;13450;49.374;8.584;2023-02-20T16:44:47;101082.28;;;12.67;96.28
25560;BME280;13450;49.374;8.584;2023-02-20T16:47:18;101087.91;;;12.58;97.82
25560;BME280;13450;49.374;8.584;2023-02-20T16:49:45;101083.66;;;12.48;99.75
25560;BME280;13450;49.374;8.584;2023-02-20T16:54:47;101089.38;;;12.22;100.00
25560;BME280;13450;49.374;8.584;2023-02-20T16:57:16;101088.63;;;12.13;100.00
25560;BME280;13450;49.374;8.584;2023-02-20T16:59:45;101093.38;;;12.02;100.00
25560;BME280;13450;49.374;8.584;2023-02-20T17:02:21;101092.25;;;11.97;100.00
25560;BME280;13450;49.374;8.584;2023-02-20T17:04:47;101091.44;;;11.88;100.00
25560;BME280;13450;49.374;8.584;2023-02-20T17:07:14;101085.16;;;11.81;100.00
25560;BME280;13450;49.374;8.584;2023-02-20T17:09:40;101088.69;;;11.73;100.00
25560;BME280;13450;49.374;8.584;2023-02-20T17:12:09;101095.13;;;11.63;100.00
25560;BME280;13450;49.374;8.584;2023-02-20T17:14:34;101091.19;;;11.51;100.00
25560;BME280;13450;49.374;8.584;2023-02-20T17:17:00;101099.25;;;11.43;100.00
25560;BME280;13450;49.374;8.584;2023-02-20T17:19:26;101099.94;;;11.36;100.00
25560;BME280;13450;49.374;8.584;2023-02-20T17:21:52;101098.97;;;11.29;100.00
25560;BME280;13450;49.374;8.584;2023-02-20T17:24:18;101099.66;;;11.23;100.00
25560;BME280;13450;49.374;8.584;2023-02-20T17:26:44;101107.38;;;11.18;100.00
25560;BME280;13450;49.374;8.584;2023-02-20T17:29:11;101113.91;;;11.15;100.00
25560;BME280;13450;49.374;8.584;2023-02-20T17:31:36;101121.63;;;11.10;100.00
25560;BME280;13450;49.374;8.584;2023-02-20T17:34:03;101119.81;;;11.02;100.00
25560;BME280;13450;49.374;8.584;2023-02-20T17:36:29;101120.50;;;10.96;100.00
25560;BME280;13450;49.374;8.584;2023-02-20T17:38:55;101115.84;;;10.90;100.00
25560;BME280;13450;49.374;8.584;2023-02-20T17:41:20;101115.34;;;10.86;100.00
25560;BME280;13450;49.374;8.584;2023-02-20T17:43:46;101122.84;;;10.82;100.00
25560;BME280;13450;49.374;8.584;2023-02-20T17:46:11;101128.91;;;10.76;100.00
25560;BME280;13450;49.374;8.584;2023-02-20T17:48:39;101125.38;;;10.76;100.00
25560;BME280;13450;49.374;8.584;2023-02-20T17:51:05;101119.06;;;10.68;100.00
25560;BME280;13450;49.374;8.584;2023-02-20T17:53:31;101118.91;;;10.62;100.00
25560;BME280;13450;49.374;8.584;2023-02-20T17:55:56;101118.91;;;10.53;100.00
25560;BME280;13450;49.374;8.584;2023-02-20T17:58:22;101126.75;;;10.46;100.00
25560;BME280;13450;49.374;8.584;2023-02-20T18:00:47;101119.19;;;10.42;100.00
25560;BME280;13450;49.374;8.584;2023-02-20T18:03:12;101129.22;;;10.40;100.00
25560;BME280;13450;49.374;8.584;2023-02-20T18:05:38;101123.88;;;10.31;100.00
25560;BME280;13450;49.374;8.584;2023-02-20T18:08:03;101126.88;;;10.28;100.00
25560;BME280;13450;49.374;8.584;2023-02-20T18:10:29;101129.38;;;10.21;100.00
25560;BME280;13450;49.374;8.584;2023-02-20T18:12:56;101120.53;;;10.13;100.00
25560;BME280;13450;49.374;8.584;2023-02-20T18:15:31;101124.84;;;10.05;100.00
25560;BME280;13450;49.374;8.584;2023-02-20T18:17:57;101128.84;;;10.01;100.00
25560;BME280;13450;49.374;8.584;2023-02-20T18:20:22;101125.19;;;9.94;100.00
25560;BME280;13450;49.374;8.584;2023-02-20T18:22:48;101121.81;;;9.84;100.00
25560;BME280;13450;49.374;8.584;2023-02-20T18:25:16;101125.13;;;9.77;100.00
25560;BME280;13450;49.374;8.584;2023-02-20T18:27:41;101128.47;;;9.71;100.00
25560;BME280;13450;49.374;8.584;2023-02-20T18:30:10;101131.09;;;9.63;100.00
25560;BME280;13450;49.374;8.584;2023-02-20T18:32:36;101124.41;;;9.59;100.00
25560;BME280;13450;49.374;8.584;2023-02-20T18:35:01;101119.72;;;9.52;100.00
25560;BME280;13450;49.374;8.584;2023-02-20T18:37:26;101107.16;;;9.45;100.00
25560;BME280;13450;49.374;8.584;2023-02-20T18:39:52;101112.28;;;9.38;100.00
25560;BME280;13450;49.374;8.584;2023-02-20T18:42:17;101105.94;;;9.31;100.00
25560;BME280;13450;49.374;8.584;2023-02-20T18:44:48;101106.56;;;9.24;100.00
25560;BME280;13450;49.374;8.584;2023-02-20T18:47:19;101116.91;;;9.19;100.00
25560;BME280;13450;49.374;8.584;2023-02-20T18:49:47;101104.53;;;9.18;100.00
25560;BME280;13450;49.374;8.584;2023-02-20T18:52:13;101105.84;;;9.14;100.00
25560;BME280;13450;49.374;8.584;2023-02-20T18:54:38;101119.38;;;9.12;100.00
25560;BME280;13450;49.374;8.584;2023-02-20T18:57:04;101118.50;;;9.03;100.00
25560;BME280;13450;49.374;8.584;2023-02-20T18:59:29;101114.31;;;9.01;100.00
25560;BME280;13450;49.374;8.584;2023-02-20T19:01:56;101108.78;;;8.94;100.00
25560;BME280;13450;49.374;8.584;2023-02-20T19:04:26;101109.72;;;8.85;100.00
25560;BME280;13450;49.374;8.584;2023-02-20T19:06:57;101123.81;;;8.77;100.00
25560;BME280;13450;49.374;8.584;2023-02-20T19:09:23;101118.97;;;8.72;100.00
25560;BME280;13450;49.374;8.584;2023-02-20T19:14:14;101107.88;;;8.59;100.00
25560;BME280;13450;49.374;8.584;2023-02-20T19:16:52;101104.25;;;8.50;100.00
25560;BME280;13450;49.374;8.584;2023-02-20T19:19:20;101111.75;;;8.46;100.00
25560;BME280;13450;49.374;8.584;2023-02-20T19:21:47;101112.38;;;8.40;100.00
25560;BME280;13450;49.374;8.584;2023-02-20T19:24:13;101110.63;;;8.31;100.00
25560;BME280;13450;49.374;8.584;2023-02-20T19:26:39;101108.25;;;8.28;100.00
25560;BME280;13450;49.374;8.584;2023-02-20T19:29:04;101106.03;;;8.23;100.00
25560;BME280;13450;49.374;8.584;2023-02-20T19:31:30;101106.88;;;8.23;100.00
25560;BME280;13450;49.374;8.584;2023-02-20T19:33:55;101105.66;;;8.18;100.00
25560;BME280;13450;49.374;8.584;2023-02-20T19:36:20;101103.75;;;8.10;100.00
25560;BME280;13450;49.374;8.584;2023-02-20T19:38:46;101109.09;;;8.10;100.00
25560;BME280;13450;49.374;8.584;2023-02-20T19:41:15;101107.19;;;8.02;100.00
25560;BME280;13450;49.374;8.584;2023-02-20T19:43:42;101096.59;;;7.92;100.00
25560;BME280;13450;49.374;8.584;2023-02-20T19:46:21;101116.53;;;7.88;100.00
25560;BME280;13450;49.374;8.584;2023-02-20T19:48:49;101096.22;;;7.87;100.00
25560;BME280;13450;49.374;8.584;2023-02-20T19:51:17;101100.25;;;7.91;100.00
25560;BME280;13450;49.374;8.584;2023-02-20T19:53:43;101101.94;;;7.92;100.00
25560;BME280;13450;49.374;8.584;2023-02-20T19:56:09;101100.16;;;7.83;100.00
25560;BME280;13450;49.374;8.584;2023-02-20T19:58:35;101108.78;;;7.77;100.00
25560;BME280;13450;49.374;8.584;2023-02-20T20:01:07;101110.50;;;7.68;100.00
25560;BME280;13450;49.374;8.584;2023-02-20T20:03:35;101106.31;;;7.65;100.00
25560;BME280;13450;49.374;8.584;2023-02-20T20:06:01;101110.88;;;7.55;100.00
25560;BME280;13450;49.374;8.584;2023-02-20T20:08:29;101111.16;;;7.52;100.00
25560;BME280;13450;49.374;8.584;2023-02-20T20:10:54;101115.66;;;7.51;100.00
25560;BME280;13450;49.374;8.584;2023-02-20T20:13:20;101116.63;;;7.50;100.00
25560;BME280;13450;49.374;8.584;2023-02-20T20:15:50;101117.38;;;7.42;100.00
25560;BME280;13450;49.374;8.584;2023-02-20T20:18:15;101115.69;;;7.41;100.00
25560;BME280;13450;49.374;8.584;2023-02-20T20:20:41;101131.28;;;7.36;100.00
25560;BME280;13450;49.374;8.584;2023-02-20T20:23:09;101133.09;;;7.36;100.00
25560;BME280;13450;49.374;8.584;2023-02-20T20:25:34;101130.56;;;7.34;100.00
25560;BME280;13450;49.374;8.584;2023-02-20T20:28:00;101138.88;;;7.31;100.00
25560;BME280;13450;49.374;8.584;2023-02-20T20:30:29;101134.50;;;7.30;100.00
25560;BME280;13450;49.374;8.584;2023-02-20T20:32:55;101137.19;;;7.30;100.00
25560;BME280;13450;49.374;8.584;2023-02-20T20:35:23;101140.69;;;7.30;100.00
25560;BME280;13450;49.374;8.584;2023-02-20T20:37:49;101137.19;;;7.30;100.00
25560;BME280;13450;49.374;8.584;2023-02-20T20:40:18;101137.50;;;7.27;100.00
25560;BME280;13450;49.374;8.584;2023-02-20T20:42:44;101144.91;;;7.23;100.00
25560;BME280;13450;49.374;8.584;2023-02-20T20:45:11;101145.66;;;7.15;100.00